Weather

DAILY 7 DAY TOTAL
onrain

Note: Some stations are located near irrigated fields and may also report irrigation

Alliston Mount Forest Blyth Guelph Grand Bend Strathroy Woodstock Belmont Simcoe Leamington Chatham West Lorne






Woodstock Outdoor FS - Historical Weather Data
Date Max Temp (°C) Min Temp (°C) Avg Temp (°C) Rain (mm) 7Day Rain(mm) Total Rain(mm) Avg RH (%)
6/21/2024 30.3 20.0 25.2 0.0 28.8 157.6 82.9
6/20/2024 29.0 19.1 23.3 20.0 28.8 157.6 88.3
6/19/2024 32.6 22.0 26.1 0.0 8.8 137.6 76.6
6/18/2024 31.2 21.8 25.9 0.0 8.8 137.6 77.5
6/17/2024 29.6 15.3 22.8 8.8 8.8 137.6 77.5
6/16/2024 26.5 11.4 19.1 0.0 0.0 128.8 67.6
6/15/2024 23.0 9.0 16.9 0.0 2.6 128.8 64.2
6/14/2024 23.5 14.3 19.2 0.0 13.4 128.8 67.0
6/13/2024 27.8 17.8 22.8 0.0 13.4 128.8 64.4
6/12/2024 24.2 10.0 17.7 0.0 14.6 128.8 69.9
6/11/2024 19.5 9.8 14.4 0.0 17.8 128.8 70.3
6/10/2024 15.0 9.6 12.2 0.0 17.8 128.8 78.4
6/9/2024 19.7 10.8 14.3 2.6 17.8 128.8 85.0
6/8/2024 21.2 11.7 15.5 10.8 29.2 126.2 77.4
6/7/2024 18.8 13.3 15.5 0.0 18.4 115.4 77.2
6/6/2024 23.5 16.2 19.8 1.2 18.4 115.4 76.2
6/5/2024 25.9 17.9 21.0 3.2 17.2 114.2 85.4
6/4/2024 28.2 13.5 21.1 0.0 14.0 111.0 78.2
6/3/2024 24.2 14.7 19.1 0.0 17.0 111.0 87.4
6/2/2024 18.9 13.4 16.5 14.0 37.2 111.0 90.6
6/1/2024 23.7 7.9 16.8 0.0 30.6 97.0 60.8
5/31/2024 22.8 4.1 14.4 0.0 45.4 97.0 58.6
5/30/2024 19.0 4.7 12.8 0.0 45.4 97.0 56.8
5/29/2024 18.5 9.1 14.4 0.0 45.4 97.0 73.2
5/28/2024 18.7 12.7 14.7 3.0 45.4 97.0 90.7
5/27/2024 22.3 14.4 17.6 20.2 43.8 94.0 92.5
5/26/2024 22.6 10.0 16.9 7.4 24.4 73.8 80.9
5/25/2024 21.7 12.0 16.3 14.8 17.0 66.4 83.7
5/24/2024 25.1 10.5 18.0 0.0 2.2 51.6 59.7
5/23/2024 23.7 13.0 18.9 0.0 21.8 51.6 60.0
5/22/2024 26.6 18.6 23.3 0.0 21.8 51.6 70.9
5/21/2024 27.6 16.3 22.4 1.4 21.8 51.6 74.1
5/20/2024 28.7 13.4 20.3 0.8 20.4 50.2 78.0
5/19/2024 27.2 10.1 19.3 0.0 20.6 49.4 79.9
5/18/2024 22.9 14.0 17.4 0.0 22.8 49.4 86.8
5/17/2024 17.2 12.7 15.0 19.6 28.0 49.4 97.3
5/16/2024 24.0 10.1 16.9 0.0 8.6 29.8 77.9
5/15/2024 22.2 10.4 16.0 0.0 8.6 29.8 76.9
5/14/2024 22.3 11.2 16.8 0.0 19.0 29.8 81.2
5/13/2024 23.8 9.7 16.3 1.0 23.2 29.8 73.3
5/12/2024 17.2 8.3 12.1 2.2 22.2 28.8 81.5
5/11/2024 11.8 5.0 8.9 5.2 20.8 26.6 91.1
5/10/2024 16.4 6.6 11.0 0.2 15.6 21.4 73.5
5/9/2024 15.8 6.0 11.3 0.0 21.2 21.2 75.2
5/8/2024 20.5 9.1 14.3 10.4 21.2 21.2 80.6
5/7/2024 22.2 5.4 14.3 4.2 10.8 10.8 59.5
5/6/2024 19.1 7.3 13.2 0.0 15.2 6.6 59.4
5/5/2024 20.2 10.7 14.6 0.8 27.8 6.6 89.9
5/4/2024 22.2 10.7 16.3 0.0 30.6 5.8 83.1
5/3/2024 15.7 10.8 12.8 5.8 36.0 5.8 87.6
5/2/2024 22.0 8.9 14.5 0.0 30.2 0.0 71.5
5/1/2024 22.5 5.7 14.5 0.0 30.2 0.0 75.2